createdAt,value
2023-02-05T00:00:25.008Z,101738.22
2023-02-05T00:03:27.667Z,101777.16
2023-02-05T00:06:30.425Z,101770.56
2023-02-05T00:09:33.296Z,101770.78
2023-02-05T00:12:35.914Z,101744.47
2023-02-05T00:15:43.543Z,101786.59
2023-02-05T00:18:46.339Z,101777.16
2023-02-05T00:21:50.030Z,101736.47
2023-02-05T00:24:52.652Z,101775.72
2023-02-05T00:27:55.348Z,101757.72
2023-02-05T00:30:57.767Z,101758.44
2023-02-05T00:34:00.404Z,101777.41
2023-02-05T00:37:02.717Z,101790.81
2023-02-05T00:40:05.865Z,101794.00
2023-02-05T00:43:08.185Z,101772.28
2023-02-05T00:46:12.764Z,101772.41
2023-02-05T00:49:15.190Z,101775.47
2023-02-05T00:52:17.906Z,101797.44
2023-02-05T00:55:20.252Z,101743.41
2023-02-05T00:58:23.048Z,101784.22
2023-02-05T01:01:25.561Z,101765.56
2023-02-05T01:04:29.396Z,101793.41
2023-02-05T01:07:31.754Z,101781.88
2023-02-05T01:10:34.730Z,101780.19
2023-02-05T01:13:37.986Z,101788.69
2023-02-05T01:16:40.653Z,101765.56
2023-02-05T01:19:43.266Z,101801.53
2023-02-05T01:22:46.073Z,101775.00
2023-02-05T01:25:48.487Z,101770.50
2023-02-05T01:28:51.154Z,101804.16
2023-02-05T01:31:53.926Z,101782.09
2023-02-05T01:34:56.590Z,101811.56
2023-02-05T01:37:59.150Z,101817.47
2023-02-05T01:41:02.582Z,101813.94
2023-02-05T01:44:06.980Z,101785.84
2023-02-05T01:47:09.657Z,101787.00
2023-02-05T01:50:12.443Z,101822.66
2023-02-05T01:53:29.595Z,101813.56
2023-02-05T01:56:36.520Z,101791.84
2023-02-05T01:59:41.661Z,101814.53
2023-02-05T02:02:44.789Z,101779.28
2023-02-05T02:05:47.411Z,101809.47
2023-02-05T02:08:49.744Z,101797.81
2023-02-05T02:11:52.489Z,101789.31
2023-02-05T02:14:59.032Z,101783.88
2023-02-05T02:18:21.833Z,101786.34
2023-02-05T02:22:02.486Z,101790.00
2023-02-05T02:25:27.565Z,101819.03
2023-02-05T02:28:39.083Z,101821.50
2023-02-05T02:31:53.682Z,101820.44
2023-02-05T02:35:05.680Z,101816.53
2023-02-05T02:38:35.546Z,101802.84
2023-02-05T02:41:55.170Z,101832.91
2023-02-05T02:45:04.710Z,101827.50
2023-02-05T02:48:08.027Z,101852.72
2023-02-05T02:51:13.162Z,101845.28
2023-02-05T02:54:18.481Z,101822.97
2023-02-05T02:57:24.061Z,101854.28
2023-02-05T03:00:27.784Z,101821.59
2023-02-05T03:03:31.993Z,101849.78
2023-02-05T03:06:35.307Z,101867.22
2023-02-05T03:09:55.047Z,101870.87
2023-02-05T03:12:58.106Z,101864.84
2023-02-05T03:16:01.986Z,101846.81
2023-02-05T03:19:06.351Z,101846.06
2023-02-05T03:22:09.198Z,101847.59
2023-02-05T03:25:12.205Z,101880.66
2023-02-05T03:28:15.842Z,101853.28
2023-02-05T03:32:12.749Z,101886.69
2023-02-05T03:35:25.432Z,101867.72
2023-02-05T03:38:43.146Z,101912.25
2023-02-05T03:41:58.086Z,101880.84
2023-02-05T03:45:28.485Z,101924.16
2023-02-05T03:48:46.084Z,101894.72
2023-02-05T03:52:01.339Z,101929.00
2023-02-05T03:55:11.137Z,101916.97
2023-02-05T03:58:29.546Z,101905.84
2023-02-05T04:01:34.001Z,101921.44
2023-02-05T04:04:36.870Z,101931.00
2023-02-05T04:07:41.723Z,101903.00
2023-02-05T04:10:44.663Z,101937.72
2023-02-05T04:13:48.003Z,101941.03
2023-02-05T04:16:50.668Z,101948.84
2023-02-05T04:19:53.402Z,101944.59
2023-02-05T04:22:56.222Z,101944.16
2023-02-05T04:25:59.242Z,101957.12
2023-02-05T04:29:04.099Z,101900.87
2023-02-05T04:32:07.392Z,101919.91
2023-02-05T04:35:10.304Z,101954.75
2023-02-05T04:38:12.693Z,101957.06
2023-02-05T04:41:15.343Z,101970.25
2023-02-05T04:44:17.753Z,101963.56
2023-02-05T04:47:20.680Z,101974.78
2023-02-05T04:50:23.979Z,101950.44
2023-02-05T04:53:26.603Z,101986.69
2023-02-05T04:56:28.993Z,101981.84
2023-02-05T04:59:31.689Z,101978.56
2023-02-05T05:02:34.104Z,101954.00
2023-02-05T05:05:37.221Z,101948.22
2023-02-05T05:08:40.340Z,101982.59
2023-02-05T05:11:43.021Z,101998.25
2023-02-05T05:14:45.303Z,101979.34
2023-02-05T05:17:47.908Z,102003.81
2023-02-05T05:20:50.221Z,102002.81
2023-02-05T05:23:52.844Z,101978.81
2023-02-05T05:26:55.121Z,101986.81
2023-02-05T05:29:57.731Z,101989.59
2023-02-05T05:33:00.108Z,102020.22
2023-02-05T05:36:02.866Z,102001.16
2023-02-05T05:39:23.818Z,102032.63
2023-02-05T05:42:45.312Z,102033.13
2023-02-05T05:45:47.703Z,102038.25
2023-02-05T05:48:52.274Z,102011.56
2023-02-05T05:51:54.689Z,102050.19
2023-02-05T05:54:57.281Z,102039.22
2023-02-05T05:57:59.631Z,102053.09
2023-02-05T06:01:02.360Z,102053.09
2023-02-05T06:04:05.075Z,102051.47
2023-02-05T06:07:07.430Z,102030.63
2023-02-05T06:10:10.828Z,102057.63
2023-02-05T06:13:13.266Z,102054.31
2023-02-05T06:16:15.877Z,102039.03
2023-02-05T06:19:18.648Z,102070.13
2023-02-05T06:22:21.254Z,102039.00
2023-02-05T06:25:26.246Z,102079.78
2023-02-05T06:28:28.829Z,102075.56
2023-02-05T06:31:32.019Z,102065.44
2023-02-05T06:34:34.766Z,102045.41
2023-02-05T06:37:47.116Z,102044.94
2023-02-05T06:40:50.137Z,102039.78
2023-02-05T06:43:52.565Z,102037.28
2023-02-05T06:46:55.221Z,102046.50
2023-02-05T06:49:57.864Z,102050.19
2023-02-05T06:53:00.505Z,102080.66
2023-02-05T06:56:02.896Z,102084.56
2023-02-05T06:59:05.506Z,102079.31
2023-02-05T07:02:08.974Z,102082.47
2023-02-05T07:05:11.718Z,102064.97
2023-02-05T07:08:15.001Z,102089.25
2023-02-05T07:11:17.700Z,102097.19
2023-02-05T07:14:20.083Z,102100.50
2023-02-05T07:17:22.985Z,102056.13
2023-02-05T07:20:25.418Z,102116.78
2023-02-05T07:23:28.031Z,102083.06
2023-02-05T07:26:30.481Z,102114.50
2023-02-05T07:29:33.202Z,102089.44
2023-02-05T07:32:37.039Z,102115.81
2023-02-05T07:35:39.817Z,102116.41
2023-02-05T07:38:43.243Z,102110.94
2023-02-05T07:41:45.939Z,102129.56
2023-02-05T07:44:50.352Z,102128.56
2023-02-05T07:47:53.954Z,102098.44
2023-02-05T07:50:56.456Z,102130.50
2023-02-05T07:53:59.148Z,102130.81
2023-02-05T07:57:02.149Z,102107.75
2023-02-05T08:00:05.612Z,102094.06
2023-02-05T08:03:14.554Z,102127.66
2023-02-05T08:06:17.396Z,102132.19
2023-02-05T08:09:19.883Z,102131.00
2023-02-05T08:12:22.543Z,102138.19
2023-02-05T08:15:25.083Z,102130.34
2023-02-05T08:18:27.861Z,102099.75
2023-02-05T08:21:30.245Z,102103.38
2023-02-05T08:24:32.951Z,102105.47
2023-02-05T08:27:37.070Z,102124.38
2023-02-05T08:30:40.127Z,102104.16
2023-02-05T08:33:42.593Z,102128.19
2023-02-05T08:36:45.181Z,102105.34
2023-02-05T08:39:47.487Z,102092.88
2023-02-05T08:42:52.738Z,102111.75
2023-02-05T08:45:55.113Z,102119.81
2023-02-05T08:48:57.857Z,102114.44
2023-02-05T08:52:00.226Z,102117.87
2023-02-05T08:55:03.356Z,102124.41
2023-02-05T08:58:05.762Z,102118.09
2023-02-05T09:01:11.654Z,102119.94
2023-02-05T09:04:15.774Z,102127.84
2023-02-05T09:07:18.497Z,102106.88
2023-02-05T09:10:20.922Z,102132.94
2023-02-05T09:13:24.201Z,102132.97
2023-02-05T09:16:27.289Z,102121.31
2023-02-05T09:19:32.056Z,102130.66
2023-02-05T09:22:34.427Z,102121.69
2023-02-05T09:25:38.593Z,102110.84
2023-02-05T09:28:40.939Z,102120.41
2023-02-05T09:31:43.653Z,102129.53
2023-02-05T09:34:46.057Z,102118.25
2023-02-05T09:37:48.755Z,102130.19
2023-02-05T09:41:01.800Z,102124.47
2023-02-05T09:44:27.438Z,102117.41
2023-02-05T09:47:40.546Z,102125.94
2023-02-05T09:50:43.815Z,102103.84
2023-02-05T09:53:52.428Z,102129.69
2023-02-05T09:57:00.764Z,102124.56
2023-02-05T10:00:16.426Z,102103.69
2023-02-05T10:03:30.012Z,102109.75
2023-02-05T10:06:55.692Z,102131.16
2023-02-05T10:10:23.655Z,102129.63
2023-02-05T10:13:38.023Z,102097.94
2023-02-05T10:17:04.725Z,102116.50
2023-02-05T10:20:30.248Z,102112.47
2023-02-05T10:24:09.935Z,102089.12
2023-02-05T10:27:22.762Z,102076.12
2023-02-05T10:30:41.255Z,102099.19
2023-02-05T10:33:56.856Z,102106.09
2023-02-05T10:37:02.054Z,102099.78
2023-02-05T10:40:15.584Z,102105.03
2023-02-05T10:43:26.528Z,102103.03
2023-02-05T10:46:33.919Z,102070.69
2023-02-05T10:50:01.121Z,102084.88
2023-02-05T10:53:03.689Z,102092.06
2023-02-05T10:56:07.110Z,102066.53
2023-02-05T10:59:20.541Z,102086.03
2023-02-05T11:02:38.990Z,102060.28
2023-02-05T11:05:41.890Z,102078.38
2023-02-05T11:08:45.285Z,102053.63
2023-02-05T11:11:55.277Z,102021.78
2023-02-05T11:15:00.796Z,102079.41
2023-02-05T11:18:07.925Z,102068.50
2023-02-05T11:21:11.371Z,102056.97
2023-02-05T11:24:26.936Z,102048.72
2023-02-05T11:27:38.569Z,101936.84
2023-02-05T11:30:50.845Z,102062.91
2023-02-05T11:34:09.107Z,102061.72
2023-02-05T11:37:17.661Z,102071.28
2023-02-05T11:40:29.205Z,102058.72
2023-02-05T11:43:32.738Z,102024.34
2023-02-05T11:46:44.877Z,102038.81
2023-02-05T11:49:51.072Z,102035.00
2023-02-05T11:52:55.694Z,102024.75
2023-02-05T11:56:02.217Z,102026.59
2023-02-05T11:59:21.185Z,102023.13
2023-02-05T12:02:28.473Z,102020.88
2023-02-05T12:05:44.328Z,102018.47
2023-02-05T12:08:51.998Z,101982.69
2023-02-05T12:12:18.439Z,102003.22
2023-02-05T12:15:29.390Z,102015.78
2023-02-05T12:18:49.749Z,102013.59
2023-02-05T12:22:00.118Z,101972.50
2023-02-05T12:25:30.232Z,102013.00
2023-02-05T12:28:51.139Z,101929.34
2023-02-05T12:32:14.327Z,102007.28
2023-02-05T12:35:49.056Z,102007.09
2023-02-05T12:39:20.948Z,101994.75
2023-02-05T12:42:42.009Z,101948.84
2023-02-05T12:45:58.131Z,101990.94
2023-02-05T12:49:21.202Z,101983.84
2023-02-05T12:52:32.806Z,101968.19
2023-02-05T12:56:08.094Z,101975.28
2023-02-05T12:59:24.964Z,101973.94
2023-02-05T13:02:36.417Z,101941.34
2023-02-05T13:05:48.459Z,101961.94
2023-02-05T13:08:56.376Z,101930.25
2023-02-05T13:12:07.308Z,101959.59
2023-02-05T13:15:15.724Z,101941.87
2023-02-05T13:18:25.683Z,101947.38
2023-02-05T13:21:47.157Z,101932.56
2023-02-05T13:25:14.644Z,101945.50
2023-02-05T13:28:41.218Z,101951.28
2023-02-05T13:31:50.029Z,101960.28
2023-02-05T13:34:55.484Z,101932.81
2023-02-05T13:38:50.951Z,101930.06
2023-02-05T13:42:06.259Z,101933.84
2023-02-05T13:45:40.937Z,101946.03
2023-02-05T13:49:00.573Z,101950.00
2023-02-05T13:52:03.154Z,101950.53
2023-02-05T13:55:24.391Z,101947.25
2023-02-05T13:58:33.683Z,101955.97
2023-02-05T14:01:42.766Z,101958.00
2023-02-05T14:04:54.254Z,101960.41
2023-02-05T14:08:01.980Z,101964.88
2023-02-05T14:11:06.025Z,101936.25
2023-02-05T14:14:17.278Z,101953.09
2023-02-05T14:17:28.885Z,101970.72
2023-02-05T14:20:35.565Z,101977.97
2023-02-05T14:23:47.511Z,101966.81
2023-02-05T14:26:52.734Z,101976.41
2023-02-05T14:29:56.941Z,101945.25
2023-02-05T14:33:01.794Z,101970.06
2023-02-05T14:36:22.946Z,101935.97
2023-02-05T14:39:31.689Z,101967.28
2023-02-05T14:42:34.436Z,101961.69
2023-02-05T14:45:44.694Z,101963.94
2023-02-05T14:48:48.662Z,101933.28
2023-02-05T14:52:00.249Z,101958.38
2023-02-05T14:55:15.671Z,101955.41
2023-02-05T14:58:31.030Z,101959.53
2023-02-05T15:01:33.621Z,101945.19
2023-02-05T15:04:51.486Z,101962.13
2023-02-05T15:08:07.178Z,101935.78
2023-02-05T15:11:28.753Z,101966.91
2023-02-05T15:14:41.527Z,101972.78
2023-02-05T15:17:51.058Z,101959.56
2023-02-05T15:20:56.507Z,101977.62
2023-02-05T15:24:20.521Z,101935.63
2023-02-05T15:27:37.107Z,101975.66
2023-02-05T15:30:53.448Z,101950.28
2023-02-05T15:34:29.869Z,101982.31
2023-02-05T15:37:46.269Z,101974.56
2023-02-05T15:40:51.491Z,101978.84
2023-02-05T15:44:01.903Z,101971.63
2023-02-05T15:47:14.445Z,101980.41
2023-02-05T15:50:17.756Z,101964.97
2023-02-05T15:53:37.833Z,101951.06
2023-02-05T15:56:42.312Z,101989.47
2023-02-05T15:59:45.027Z,102000.34
2023-02-05T16:03:02.447Z,101960.44
2023-02-05T16:06:06.942Z,101975.38
2023-02-05T16:09:17.013Z,102001.22
2023-02-05T16:12:19.910Z,101970.31
2023-02-05T16:15:22.991Z,102008.75
2023-02-05T16:18:40.723Z,102001.75
2023-02-05T16:21:50.250Z,102003.44
2023-02-05T16:25:01.328Z,102004.38
2023-02-05T16:28:13.257Z,101968.97
2023-02-05T16:31:21.994Z,102024.97
2023-02-05T16:34:26.069Z,102028.19
2023-02-05T16:37:30.649Z,102025.59
2023-02-05T16:40:40.750Z,102022.87
2023-02-05T16:43:43.917Z,102023.97
2023-02-05T16:47:06.016Z,102005.19
2023-02-05T16:50:37.305Z,102008.50
2023-02-05T16:53:49.869Z,102044.50
2023-02-05T16:57:04.191Z,102012.25
2023-02-05T17:00:23.899Z,102044.88
2023-02-05T17:03:34.520Z,102047.13
2023-02-05T17:06:38.520Z,102048.16
2023-02-05T17:09:41.868Z,102052.22
2023-02-05T17:12:56.660Z,102047.13
2023-02-05T17:16:28.919Z,102065.31
2023-02-05T17:19:33.584Z,102071.00
2023-02-05T17:22:36.442Z,102036.47
2023-02-05T17:25:43.273Z,102076.19
2023-02-05T17:28:50.413Z,102092.97
2023-02-05T17:31:52.869Z,102081.25
2023-02-05T17:34:55.631Z,102053.84
2023-02-05T17:37:58.344Z,102078.19
2023-02-05T17:41:19.493Z,102074.91
2023-02-05T17:44:21.890Z,101961.66
2023-02-05T17:47:24.591Z,102080.31
2023-02-05T17:50:27.317Z,102056.69
2023-02-05T17:53:29.944Z,102050.53
2023-02-05T17:56:32.375Z,102083.38
2023-02-05T17:59:35.588Z,102105.59
2023-02-05T18:02:38.103Z,102122.94
2023-02-05T18:05:40.814Z,102109.94
2023-02-05T18:08:43.281Z,102122.28
2023-02-05T18:11:46.020Z,102088.81
2023-02-05T18:14:48.432Z,102090.09
2023-02-05T18:17:51.736Z,102129.56
2023-02-05T18:20:54.275Z,102130.50
2023-02-05T18:23:57.009Z,102109.16
2023-02-05T18:26:59.470Z,102092.47
2023-02-05T18:30:02.159Z,102138.37
2023-02-05T18:33:04.531Z,102101.47
2023-02-05T18:36:10.004Z,102113.88
2023-02-05T18:39:12.363Z,102137.19
2023-02-05T18:42:15.381Z,102112.78
2023-02-05T18:45:17.814Z,102154.53
2023-02-05T18:48:20.474Z,102152.72
2023-02-05T18:51:24.013Z,102175.25
2023-02-05T18:54:26.756Z,102172.09
2023-02-05T18:57:29.157Z,102170.72
2023-02-05T19:00:32.150Z,102180.91
2023-02-05T19:03:34.797Z,102186.56
2023-02-05T19:06:39.859Z,102183.84
2023-02-05T19:09:44.061Z,102153.22
2023-02-05T19:12:46.847Z,102192.72
2023-02-05T19:15:51.373Z,102194.84
2023-02-05T19:18:54.764Z,102171.81
2023-02-05T19:22:02.096Z,102197.31
2023-02-05T19:25:07.315Z,102201.44
2023-02-05T19:28:12.239Z,102203.91
2023-02-05T19:31:15.668Z,102173.00
2023-02-05T19:34:18.092Z,102178.41
2023-02-05T19:37:21.374Z,102207.50
2023-02-05T19:40:23.772Z,102183.13
2023-02-05T19:43:26.403Z,102183.50
2023-02-05T19:46:35.643Z,102193.03
2023-02-05T19:49:38.357Z,102212.16
2023-02-05T19:52:40.700Z,102192.25
2023-02-05T19:55:43.461Z,102226.66
2023-02-05T19:58:48.768Z,102226.19
2023-02-05T20:01:51.714Z,102231.41
2023-02-05T20:04:54.521Z,102198.81
2023-02-05T20:07:57.513Z,102194.66
2023-02-05T20:11:01.840Z,102226.66
2023-02-05T20:14:04.804Z,102231.69
2023-02-05T20:17:08.254Z,102225.44
2023-02-05T20:20:24.931Z,102203.50
2023-02-05T20:23:35.423Z,102223.88
2023-02-05T20:26:38.532Z,102203.84
2023-02-05T20:30:00.997Z,102238.44
2023-02-05T20:33:03.801Z,102211.47
2023-02-05T20:36:09.171Z,102231.53
2023-02-05T20:39:11.786Z,102248.06
2023-02-05T20:42:15.656Z,102212.56
2023-02-05T20:45:18.117Z,102256.72
2023-02-05T20:48:20.773Z,102260.78
2023-02-05T20:51:23.384Z,102247.22
2023-02-05T20:54:27.083Z,102234.78
2023-02-05T20:57:29.341Z,102244.78
2023-02-05T21:00:32.045Z,102261.94
2023-02-05T21:03:35.318Z,102257.28
2023-02-05T21:06:39.716Z,102254.78
2023-02-05T21:09:42.098Z,102236.41
2023-02-05T21:12:45.898Z,102256.50
2023-02-05T21:15:56.343Z,102237.91
2023-02-05T21:18:59.454Z,102263.59
2023-02-05T21:22:01.954Z,102242.09
2023-02-05T21:25:04.746Z,102278.28
2023-02-05T21:28:07.167Z,102278.44
2023-02-05T21:31:10.214Z,102241.25
2023-02-05T21:34:15.077Z,102247.06
2023-02-05T21:37:17.646Z,102243.34
2023-02-05T21:40:20.278Z,102280.56
2023-02-05T21:43:22.873Z,102289.72
2023-02-05T21:46:29.247Z,102292.88
2023-02-05T21:49:31.937Z,102271.31
2023-02-05T21:52:34.244Z,102300.00
2023-02-05T21:55:36.858Z,102306.00
2023-02-05T21:58:40.463Z,102304.13
2023-02-05T22:01:43.153Z,102307.91
2023-02-05T22:04:45.889Z,102298.75
2023-02-05T22:07:48.283Z,102302.78
2023-02-05T22:10:50.922Z,102315.88
2023-02-05T22:13:54.776Z,102322.59
2023-02-05T22:16:57.394Z,102304.31
2023-02-05T22:19:59.821Z,102303.94
2023-02-05T22:23:02.402Z,102336.94
2023-02-05T22:26:06.211Z,102334.66
2023-02-05T22:29:12.601Z,102320.12
2023-02-05T22:32:14.919Z,102349.22
2023-02-05T22:35:17.562Z,102329.69
2023-02-05T22:38:19.930Z,102348.81
2023-02-05T22:41:28.967Z,102323.91
2023-02-05T22:44:31.292Z,102359.03
2023-02-05T22:47:36.855Z,102344.25
2023-02-05T22:50:43.895Z,102356.75
2023-02-05T22:53:48.811Z,102331.25
2023-02-05T22:56:51.098Z,102354.72
2023-02-05T22:59:54.301Z,102354.91
2023-02-05T23:02:57.905Z,102354.91
2023-02-05T23:06:00.505Z,102323.94
2023-02-05T23:09:11.901Z,102327.03
2023-02-05T23:12:14.518Z,102353.88
2023-02-05T23:15:17.113Z,102322.69
2023-02-05T23:18:19.835Z,102322.28
2023-02-05T23:21:24.972Z,102354.50
2023-02-05T23:24:27.652Z,102336.03
2023-02-05T23:27:32.684Z,102355.53
2023-02-05T23:30:35.342Z,102365.13
2023-02-05T23:33:38.370Z,102340.62
2023-02-05T23:36:41.973Z,102338.94
2023-02-05T23:39:44.330Z,102340.84
2023-02-05T23:42:47.138Z,102368.47
2023-02-05T23:45:51.263Z,102354.16
2023-02-05T23:48:53.930Z,102335.44
2023-02-05T23:51:56.408Z,102358.03
2023-02-05T23:54:58.967Z,102351.03
2023-02-05T23:58:01.386Z,102363.91
